createdAt,value
2023-05-10T00:00:41.233Z,2.50
2023-05-10T00:03:43.151Z,3.10
2023-05-10T00:06:44.889Z,2.72
2023-05-10T00:09:47.861Z,3.17
2023-05-10T00:12:49.601Z,2.90
2023-05-10T00:15:51.574Z,3.47
2023-05-10T00:18:53.536Z,3.40
2023-05-10T00:21:55.201Z,3.05
2023-05-10T00:24:58.276Z,3.10
2023-05-10T00:28:00.431Z,3.00
2023-05-10T00:31:02.052Z,3.25
2023-05-10T00:34:03.781Z,3.03
2023-05-10T00:37:05.407Z,3.08
2023-05-10T00:40:09.338Z,3.30
2023-05-10T00:43:11.013Z,3.20
2023-05-10T00:46:13.174Z,3.63
2023-05-10T00:49:15.001Z,3.28
2023-05-10T00:52:16.816Z,3.00
2023-05-10T00:55:20.791Z,3.10
2023-05-10T00:58:22.447Z,3.42
2023-05-10T01:01:24.605Z,3.42
2023-05-10T01:04:26.568Z,3.17
2023-05-10T01:07:28.437Z,3.28
2023-05-10T01:10:32.029Z,3.13
2023-05-10T01:16:39.498Z,3.30
2023-05-10T01:19:41.676Z,3.38
2023-05-10T01:23:28.904Z,3.50
2023-05-10T01:26:51.167Z,3.65
2023-05-10T01:30:14.751Z,3.25
2023-05-10T01:33:31.176Z,4.50
2023-05-10T01:36:37.700Z,3.40
2023-05-10T01:39:46.844Z,4.05
2023-05-10T01:42:51.962Z,3.47
2023-05-10T01:46:01.991Z,3.38
2023-05-10T01:49:10.069Z,4.20
2023-05-10T01:52:14.950Z,3.80
2023-05-10T01:55:19.014Z,4.40
2023-05-10T01:58:23.929Z,4.25
2023-05-10T02:01:27.618Z,4.03
2023-05-10T02:04:31.396Z,3.55
2023-05-10T02:07:34.815Z,4.05
2023-05-10T02:10:37.246Z,3.90
2023-05-10T02:13:40.094Z,3.65
2023-05-10T02:16:42.310Z,4.20
2023-05-10T02:19:48.152Z,3.83
2023-05-10T02:22:51.604Z,3.90
2023-05-10T02:25:55.811Z,3.67
2023-05-10T02:28:58.888Z,4.22
2023-05-10T02:32:01.427Z,4.57
2023-05-10T02:35:05.708Z,4.00
2023-05-10T02:38:09.567Z,3.65
2023-05-10T02:41:13.085Z,4.30
2023-05-10T02:44:16.238Z,3.95
2023-05-10T02:47:18.899Z,3.92
2023-05-10T02:50:23.147Z,3.88
2023-05-10T02:53:32.000Z,4.32
2023-05-10T02:56:37.518Z,4.28
2023-05-10T02:59:39.375Z,3.72
2023-05-10T03:02:41.086Z,4.15
2023-05-10T03:05:44.107Z,3.85
2023-05-10T03:08:46.439Z,4.18
2023-05-10T03:11:55.970Z,4.15
2023-05-10T03:15:04.496Z,4.50
2023-05-10T03:18:10.392Z,4.07
2023-05-10T03:21:15.256Z,12.00
2023-05-10T03:24:19.953Z,4.88
2023-05-10T03:27:23.684Z,3.55
2023-05-10T03:30:25.789Z,4.10
2023-05-10T03:33:27.597Z,4.38
2023-05-10T03:36:30.550Z,4.40
2023-05-10T03:39:32.188Z,4.32
2023-05-10T03:42:33.838Z,4.07
2023-05-10T03:45:35.668Z,4.38
2023-05-10T03:48:42.360Z,4.10
2023-05-10T03:51:45.572Z,4.82
2023-05-10T03:54:47.389Z,4.30
2023-05-10T03:57:49.124Z,4.30
2023-05-10T04:00:51.884Z,4.75
2023-05-10T04:03:53.868Z,4.63
2023-05-10T04:06:58.180Z,4.45
2023-05-10T04:09:59.936Z,4.13
2023-05-10T04:13:01.631Z,4.07
2023-05-10T04:16:03.529Z,4.55
2023-05-10T04:19:05.232Z,4.30
2023-05-10T04:22:08.200Z,4.72
2023-05-10T04:25:10.150Z,4.13
2023-05-10T04:28:11.749Z,6.55
2023-05-10T04:31:13.432Z,4.85
2023-05-10T04:34:15.141Z,5.28
2023-05-10T04:37:18.180Z,4.72
2023-05-10T04:40:19.741Z,4.63
2023-05-10T04:43:21.457Z,4.72
2023-05-10T04:46:23.190Z,4.68
2023-05-10T04:49:25.188Z,4.47
2023-05-10T04:52:28.189Z,5.15
2023-05-10T04:55:29.936Z,4.25
2023-05-10T04:58:31.704Z,4.28
2023-05-10T05:01:33.650Z,4.13
2023-05-10T05:04:35.331Z,4.63
2023-05-10T05:07:38.551Z,5.05
2023-05-10T05:10:40.576Z,4.40
2023-05-10T05:13:42.214Z,4.60
2023-05-10T05:16:43.998Z,4.15
2023-05-10T05:19:45.924Z,4.95
2023-05-10T05:22:49.172Z,4.15
2023-05-10T05:25:50.802Z,4.50
2023-05-10T05:28:52.509Z,4.43
2023-05-10T05:31:55.607Z,4.07
2023-05-10T05:34:57.480Z,4.72
2023-05-10T05:38:00.498Z,5.13
2023-05-10T05:41:02.189Z,4.55
2023-05-10T05:44:03.837Z,5.15
2023-05-10T05:47:06.282Z,5.13
2023-05-10T05:50:08.600Z,4.93
2023-05-10T05:53:11.629Z,4.90
2023-05-10T05:56:13.321Z,4.65
2023-05-10T05:59:14.932Z,5.00
2023-05-10T06:02:16.880Z,5.00
2023-05-10T06:05:18.875Z,5.00
2023-05-10T06:08:21.951Z,4.45
2023-05-10T06:11:23.627Z,4.70
2023-05-10T06:14:25.380Z,4.90
2023-05-10T06:17:27.062Z,5.15
2023-05-10T06:20:29.197Z,4.43
2023-05-10T06:23:32.259Z,4.60
2023-05-10T06:26:34.405Z,4.20
2023-05-10T06:29:36.078Z,4.30
2023-05-10T06:32:37.980Z,4.55
2023-05-10T06:35:39.635Z,4.43
2023-05-10T06:38:42.702Z,3.88
2023-05-10T06:41:44.568Z,4.00
2023-05-10T06:44:46.204Z,4.00
2023-05-10T06:47:48.166Z,4.53
2023-05-10T06:50:49.856Z,4.18
2023-05-10T06:53:52.931Z,4.13
2023-05-10T06:56:54.811Z,4.40
2023-05-10T06:59:56.709Z,4.53
2023-05-10T07:03:01.855Z,5.03
2023-05-10T07:06:32.927Z,4.97
2023-05-10T07:09:36.731Z,3.92
2023-05-10T07:12:38.856Z,4.25
2023-05-10T07:15:40.840Z,4.70
2023-05-10T07:18:43.062Z,5.20
2023-05-10T07:21:44.791Z,4.68
2023-05-10T07:24:47.878Z,4.65
2023-05-10T07:27:49.807Z,5.32
2023-05-10T07:30:51.596Z,4.03
2023-05-10T07:34:09.929Z,4.05
2023-05-10T07:37:11.691Z,5.38
2023-05-10T07:40:14.723Z,4.60
2023-05-10T07:43:16.380Z,4.47
2023-05-10T07:46:18.462Z,3.90
2023-05-10T07:49:20.155Z,4.80
2023-05-10T07:52:22.805Z,4.07
2023-05-10T07:55:26.041Z,4.32
2023-05-10T07:58:28.058Z,3.58
2023-05-10T08:01:31.860Z,3.63
2023-05-10T08:04:33.496Z,3.78
2023-05-10T08:07:36.960Z,4.00
2023-05-10T08:10:40.507Z,4.05
2023-05-10T08:13:42.298Z,4.75
2023-05-10T08:16:43.973Z,4.07
2023-05-10T08:19:45.759Z,4.43
2023-05-10T08:22:52.553Z,4.32
2023-05-10T08:25:58.714Z,4.32
2023-05-10T08:29:00.429Z,4.43
2023-05-10T08:32:02.175Z,4.28
2023-05-10T08:35:04.202Z,4.05
2023-05-10T08:38:06.196Z,5.10
2023-05-10T08:41:10.045Z,4.32
2023-05-10T08:44:11.832Z,4.47
2023-05-10T08:47:16.844Z,4.13
2023-05-10T08:50:21.194Z,3.78
2023-05-10T08:53:25.713Z,3.83
2023-05-10T08:56:29.159Z,3.42
2023-05-10T08:59:31.143Z,3.33
2023-05-10T09:02:34.080Z,3.35
2023-05-10T09:05:37.347Z,3.45
2023-05-10T09:08:39.099Z,3.30
2023-05-10T09:11:45.646Z,3.20
2023-05-10T09:14:47.770Z,3.20
2023-05-10T09:17:50.862Z,3.78
2023-05-10T09:23:54.139Z,3.10
2023-05-10T09:26:58.212Z,2.72
2023-05-10T09:29:59.869Z,2.90
2023-05-10T09:33:01.973Z,3.15
2023-05-10T09:36:08.496Z,2.97
2023-05-10T09:39:10.124Z,3.17
2023-05-10T09:42:13.182Z,3.42
2023-05-10T09:45:15.410Z,2.78
2023-05-10T09:48:17.381Z,2.90
2023-05-10T09:51:21.939Z,2.30
2023-05-10T09:54:23.594Z,2.85
2023-05-10T09:57:26.549Z,2.90
2023-05-10T10:00:29.159Z,2.60
2023-05-10T10:03:31.395Z,2.80
2023-05-10T10:06:37.394Z,2.72
2023-05-10T10:09:40.095Z,2.63
2023-05-10T10:12:45.048Z,2.55
2023-05-10T10:15:47.398Z,2.42
2023-05-10T10:18:50.273Z,2.60
2023-05-10T10:21:52.006Z,2.90
2023-05-10T10:24:55.398Z,2.55
2023-05-10T10:28:10.145Z,2.30
2023-05-10T10:31:24.795Z,2.50
2023-05-10T10:34:28.715Z,2.33
2023-05-10T10:37:44.864Z,2.33
2023-05-10T10:40:46.576Z,2.33
2023-05-10T10:43:49.647Z,2.63
2023-05-10T10:47:02.676Z,2.40
2023-05-10T10:50:06.762Z,2.33
2023-05-10T10:53:12.185Z,2.58
2023-05-10T10:56:14.304Z,2.70
2023-05-10T10:59:27.847Z,2.33
2023-05-10T11:02:44.329Z,2.40
2023-05-10T11:05:46.184Z,2.50
2023-05-10T11:08:48.105Z,2.65
2023-05-10T11:11:51.705Z,2.45
2023-05-10T11:14:58.405Z,2.58
2023-05-10T11:18:00.633Z,2.47
2023-05-10T11:21:03.671Z,2.13
2023-05-10T11:24:15.057Z,2.75
2023-05-10T11:27:17.038Z,2.38
2023-05-10T11:30:20.213Z,2.17
2023-05-10T11:33:22.110Z,2.00
2023-05-10T11:36:25.786Z,2.20
2023-05-10T11:39:28.537Z,2.10
2023-05-10T11:42:30.283Z,1.70
2023-05-10T11:45:34.544Z,2.00
2023-05-10T11:48:36.300Z,2.20
2023-05-10T11:51:37.921Z,2.08
2023-05-10T11:54:46.149Z,1.88
2023-05-10T11:57:48.233Z,1.80
2023-05-10T12:00:51.406Z,1.90
2023-05-10T12:03:55.366Z,1.75
2023-05-10T12:06:57.419Z,2.00
2023-05-10T12:10:10.129Z,2.03
2023-05-10T12:13:12.827Z,1.90
2023-05-10T12:16:17.458Z,1.88
2023-05-10T12:19:19.971Z,1.83
2023-05-10T12:22:22.045Z,1.95
2023-05-10T12:25:25.283Z,1.80
2023-05-10T12:31:58.340Z,1.58
2023-05-10T12:35:00.264Z,1.80
2023-05-10T12:38:01.900Z,1.70
2023-05-10T12:41:04.943Z,1.70
2023-05-10T12:44:06.576Z,1.42
2023-05-10T12:47:09.799Z,1.80
2023-05-10T12:53:14.756Z,1.70
2023-05-10T12:56:16.672Z,1.98
2023-05-10T12:59:18.533Z,1.52
2023-05-10T13:02:21.516Z,1.63
2023-05-10T13:05:23.211Z,1.70
2023-05-10T13:08:25.164Z,1.90
2023-05-10T13:11:27.015Z,1.73
2023-05-10T13:14:28.931Z,1.70
2023-05-10T13:17:33.565Z,1.65
2023-05-10T13:20:35.801Z,1.63
2023-05-10T13:23:37.361Z,1.58
2023-05-10T13:26:38.923Z,1.80
2023-05-10T13:29:40.899Z,1.50
2023-05-10T13:32:44.825Z,1.70
2023-05-10T13:41:49.286Z,1.90
2023-05-10T13:44:51.075Z,2.00
2023-05-10T13:47:54.113Z,2.08
2023-05-10T13:50:55.707Z,1.60
2023-05-10T13:53:57.338Z,1.83
2023-05-10T13:56:58.939Z,1.50
2023-05-10T14:00:00.520Z,1.42
2023-05-10T14:03:03.548Z,1.77
2023-05-10T14:15:10.401Z,1.65
2023-05-10T14:18:13.407Z,1.52
2023-05-10T14:21:15.082Z,1.70
2023-05-10T14:24:16.734Z,1.63
2023-05-10T14:27:18.329Z,1.65
2023-05-10T14:30:19.980Z,1.42
2023-05-10T14:33:23.046Z,1.67
2023-05-10T14:36:24.629Z,1.58
2023-05-10T14:39:26.459Z,1.70
2023-05-10T14:42:28.658Z,1.50
2023-05-10T14:45:30.368Z,1.88
2023-05-10T14:48:33.810Z,1.63
2023-05-10T14:51:35.427Z,1.85
2023-05-10T14:54:37.015Z,1.95
2023-05-10T14:57:39.056Z,1.80
2023-05-10T15:00:41.473Z,1.85
2023-05-10T15:03:44.995Z,1.50
2023-05-10T15:06:47.117Z,1.77
2023-05-10T15:09:48.722Z,1.70
2023-05-10T15:12:51.200Z,2.20
2023-05-10T15:15:53.099Z,2.30
2023-05-10T15:18:56.440Z,1.60
2023-05-10T15:21:58.066Z,1.58
2023-05-10T15:25:00.950Z,1.75
2023-05-10T15:28:02.776Z,1.65
2023-05-10T15:31:06.838Z,1.80
2023-05-10T15:34:09.829Z,1.90
2023-05-10T15:37:11.670Z,1.70
2023-05-10T15:40:13.440Z,1.77
2023-05-10T15:43:15.076Z,1.65
2023-05-10T15:46:16.779Z,2.00
2023-05-10T15:49:19.715Z,1.70
2023-05-10T15:52:21.409Z,1.83
2023-05-10T15:55:23.060Z,1.90
2023-05-10T15:58:24.742Z,1.70
2023-05-10T16:01:26.596Z,2.40
2023-05-10T16:04:29.673Z,1.90
2023-05-10T16:07:33.917Z,2.03
2023-05-10T16:10:35.678Z,1.92
2023-05-10T16:13:37.632Z,2.05
2023-05-10T16:16:39.884Z,1.88
2023-05-10T16:19:43.065Z,2.00
2023-05-10T16:22:44.746Z,1.90
2023-05-10T16:25:46.918Z,2.00
2023-05-10T16:28:48.997Z,1.85
2023-05-10T16:31:50.654Z,1.85
2023-05-10T16:34:53.656Z,2.28
2023-05-10T16:37:55.744Z,1.67
2023-05-10T16:40:57.442Z,2.40
2023-05-10T16:43:59.356Z,2.50
2023-05-10T16:47:00.979Z,2.17
2023-05-10T16:50:05.620Z,2.28
2023-05-10T16:53:07.552Z,7.38
2023-05-10T16:56:10.501Z,2.45
2023-05-10T16:59:12.269Z,2.50
2023-05-10T17:02:14.782Z,2.63
2023-05-10T17:05:18.223Z,2.75
2023-05-10T17:08:20.299Z,2.42
2023-05-10T17:11:21.961Z,2.25
2023-05-10T17:14:23.605Z,2.60
2023-05-10T17:17:25.443Z,2.47
2023-05-10T17:20:28.541Z,2.58
2023-05-10T17:23:30.338Z,2.58
2023-05-10T17:26:32.202Z,2.40
2023-05-10T17:29:33.905Z,2.40
2023-05-10T17:32:35.765Z,3.50
2023-05-10T17:35:38.830Z,3.08
2023-05-10T17:38:40.566Z,2.45
2023-05-10T17:41:42.261Z,2.67
2023-05-10T17:44:44.250Z,2.78
2023-05-10T17:47:46.345Z,2.30
2023-05-10T17:50:51.582Z,2.08
2023-05-10T17:53:53.271Z,1.98
2023-05-10T17:56:54.866Z,2.38
2023-05-10T17:59:56.753Z,2.40
2023-05-10T18:02:58.630Z,3.28
2023-05-10T18:06:02.668Z,2.85
2023-05-10T18:09:04.938Z,3.58
2023-05-10T18:12:07.211Z,3.08
2023-05-10T18:15:09.676Z,2.50
2023-05-10T18:18:11.848Z,2.53
2023-05-10T18:21:14.829Z,3.25
2023-05-10T18:24:23.022Z,4.45
2023-05-10T18:30:33.849Z,3.22
2023-05-10T18:33:35.548Z,4.13
2023-05-10T18:36:39.962Z,3.60
2023-05-10T18:39:42.351Z,3.03
2023-05-10T18:42:44.130Z,3.00
2023-05-10T18:45:45.805Z,3.15
2023-05-10T18:48:47.789Z,3.10
2023-05-10T18:51:51.008Z,3.05
2023-05-10T18:54:53.058Z,3.47
2023-05-10T18:57:55.831Z,3.83
2023-05-10T19:00:57.515Z,4.53
2023-05-10T19:03:59.959Z,4.55
2023-05-10T19:07:06.579Z,3.65
2023-05-10T19:10:09.100Z,3.95
2023-05-10T19:13:11.318Z,3.60
2023-05-10T19:16:15.089Z,3.97
2023-05-10T19:19:19.831Z,3.42
2023-05-10T19:22:36.070Z,3.45
2023-05-10T19:25:45.978Z,3.08
2023-05-10T19:28:47.757Z,3.10
2023-05-10T19:31:49.754Z,3.28
2023-05-10T19:34:52.172Z,3.58
2023-05-10T19:37:55.447Z,3.63
2023-05-10T19:40:59.023Z,3.42
2023-05-10T19:44:00.872Z,3.25
2023-05-10T19:47:02.873Z,3.25
2023-05-10T19:50:06.173Z,3.13
2023-05-10T19:53:09.948Z,3.05
2023-05-10T19:56:13.872Z,3.13
2023-05-10T19:59:16.218Z,2.97
2023-05-10T20:02:17.984Z,3.00
2023-05-10T20:05:20.054Z,3.42
2023-05-10T20:08:23.708Z,3.25
2023-05-10T20:11:25.663Z,3.20
2023-05-10T20:14:28.093Z,3.00
2023-05-10T20:17:30.531Z,3.00
2023-05-10T20:20:35.458Z,2.90
2023-05-10T20:23:39.249Z,3.17
2023-05-10T20:26:40.957Z,3.50
2023-05-10T20:29:42.664Z,3.13
2023-05-10T20:32:44.962Z,3.00
2023-05-10T20:35:47.424Z,3.00
2023-05-10T20:38:50.586Z,3.13
2023-05-10T20:41:52.334Z,3.13
2023-05-10T20:44:54.037Z,3.10
2023-05-10T20:47:55.817Z,3.15
2023-05-10T20:50:57.947Z,3.05
2023-05-10T20:54:01.456Z,2.95
2023-05-10T21:06:08.473Z,2.70
2023-05-10T21:09:11.451Z,2.75
2023-05-10T21:12:13.393Z,2.97
2023-05-10T21:15:15.077Z,3.10
2023-05-10T21:18:16.818Z,3.45
2023-05-10T21:21:18.607Z,3.70
2023-05-10T21:24:21.665Z,4.85
2023-05-10T21:27:23.284Z,4.15
2023-05-10T21:30:25.266Z,3.60
2023-05-10T21:33:27.272Z,3.63
2023-05-10T21:36:28.958Z,3.17
2023-05-10T21:39:32.240Z,2.97
2023-05-10T21:42:34.162Z,2.72
2023-05-10T21:45:35.859Z,3.13
2023-05-10T21:48:37.797Z,2.88
2023-05-10T21:51:39.460Z,2.75
2023-05-10T21:54:42.476Z,2.90
2023-05-10T21:57:44.310Z,3.17
2023-05-10T22:00:46.003Z,3.40
2023-05-10T22:03:47.664Z,3.03
2023-05-10T22:06:49.285Z,3.00
2023-05-10T22:09:52.305Z,3.50
2023-05-10T22:12:53.977Z,3.00
2023-05-10T22:15:55.697Z,2.97
2023-05-10T22:18:57.491Z,3.22
2023-05-10T22:21:59.179Z,2.90
2023-05-10T22:25:02.184Z,2.97
2023-05-10T22:28:03.911Z,2.88
2023-05-10T22:31:09.385Z,3.13
2023-05-10T22:37:40.349Z,3.72
2023-05-10T22:40:43.400Z,3.10
2023-05-10T22:43:45.049Z,3.47
2023-05-10T22:46:49.009Z,3.35
2023-05-10T22:49:51.698Z,3.00
2023-05-10T22:52:53.417Z,2.88
2023-05-10T22:55:56.618Z,3.08
2023-05-10T22:58:58.428Z,2.85
2023-05-10T23:02:00.168Z,2.80
2023-05-10T23:05:01.930Z,2.78
2023-05-10T23:08:03.588Z,2.78
2023-05-10T23:11:06.599Z,2.85
2023-05-10T23:14:08.283Z,2.53
2023-05-10T23:17:09.917Z,3.15
2023-05-10T23:20:12.911Z,2.78
2023-05-10T23:23:14.835Z,2.63
2023-05-10T23:26:18.373Z,2.67
2023-05-10T23:29:20.573Z,2.80
2023-05-10T23:32:22.471Z,2.70
2023-05-10T23:35:24.294Z,2.72
2023-05-10T23:38:26.041Z,3.38
2023-05-10T23:41:29.318Z,2.95
2023-05-10T23:44:30.953Z,2.65
2023-05-10T23:47:32.610Z,3.17
2023-05-10T23:50:34.315Z,3.17
2023-05-10T23:53:35.984Z,3.15
2023-05-10T23:56:39.297Z,2.80
2023-05-10T23:59:40.929Z,3.53
